sensor_id;sensor_type;location;lat;lon;timestamp;P1;durP1;ratioP1;P2;durP2;ratioP2
1206;SDS011;593;53.184;8.216;2023-12-14T00:01:26;3.27;;;3.00;;
1206;SDS011;593;53.184;8.216;2023-12-14T00:03:52;3.67;;;3.20;;
1206;SDS011;593;53.184;8.216;2023-12-14T00:06:17;4.07;;;3.23;;
1206;SDS011;593;53.184;8.216;2023-12-14T00:08:43;3.50;;;3.20;;
1206;SDS011;593;53.184;8.216;2023-12-14T00:11:09;3.50;;;3.20;;
1206;SDS011;593;53.184;8.216;2023-12-14T00:13:36;3.67;;;3.38;;
1206;SDS011;593;53.184;8.216;2023-12-14T00:16:01;3.13;;;2.73;;
1206;SDS011;593;53.184;8.216;2023-12-14T00:18:27;3.50;;;3.20;;
1206;SDS011;593;53.184;8.216;2023-12-14T00:20:52;4.20;;;2.73;;
1206;SDS011;593;53.184;8.216;2023-12-14T00:23:19;4.35;;;3.00;;
1206;SDS011;593;53.184;8.216;2023-12-14T00:25:48;3.17;;;2.33;;
1206;SDS011;593;53.184;8.216;2023-12-14T00:28:13;2.93;;;2.63;;
1206;SDS011;593;53.184;8.216;2023-12-14T00:30:38;3.77;;;3.20;;
1206;SDS011;593;53.184;8.216;2023-12-14T00:33:04;3.40;;;3.20;;
1206;SDS011;593;53.184;8.216;2023-12-14T00:35:29;4.20;;;2.90;;
1206;SDS011;593;53.184;8.216;2023-12-14T00:37:55;1.90;;;1.80;;
1206;SDS011;593;53.184;8.216;2023-12-14T00:40:20;3.30;;;2.63;;
1206;SDS011;593;53.184;8.216;2023-12-14T00:42:48;2.50;;;2.30;;
1206;SDS011;593;53.184;8.216;2023-12-14T00:45:14;3.47;;;3.03;;
1206;SDS011;593;53.184;8.216;2023-12-14T00:47:39;3.50;;;2.50;;
1206;SDS011;593;53.184;8.216;2023-12-14T00:50:05;3.30;;;3.00;;
1206;SDS011;593;53.184;8.216;2023-12-14T00:52:30;3.40;;;3.10;;
1206;SDS011;593;53.184;8.216;2023-12-14T00:54:56;3.30;;;2.87;;
1206;SDS011;593;53.184;8.216;2023-12-14T00:57:21;4.10;;;3.40;;
1206;SDS011;593;53.184;8.216;2023-12-14T00:59:47;4.77;;;2.70;;
1206;SDS011;593;53.184;8.216;2023-12-14T01:02:12;4.97;;;4.07;;
1206;SDS011;593;53.184;8.216;2023-12-14T01:04:38;3.37;;;2.63;;
1206;SDS011;593;53.184;8.216;2023-12-14T01:07:03;4.83;;;3.20;;
1206;SDS011;593;53.184;8.216;2023-12-14T01:09:29;4.05;;;3.30;;
1206;SDS011;593;53.184;8.216;2023-12-14T01:11:55;4.20;;;3.37;;
1206;SDS011;593;53.184;8.216;2023-12-14T01:14:20;4.10;;;3.67;;
1206;SDS011;593;53.184;8.216;2023-12-14T01:16:46;4.77;;;3.30;;
1206;SDS011;593;53.184;8.216;2023-12-14T01:19:11;4.33;;;3.93;;
1206;SDS011;593;53.184;8.216;2023-12-14T01:21:37;3.23;;;2.97;;
1206;SDS011;593;53.184;8.216;2023-12-14T01:24:02;4.93;;;3.20;;
1206;SDS011;593;53.184;8.216;2023-12-14T01:26:28;6.40;;;4.07;;
1206;SDS011;593;53.184;8.216;2023-12-14T01:28:53;3.33;;;2.80;;
1206;SDS011;593;53.184;8.216;2023-12-14T01:31:19;4.07;;;2.87;;
1206;SDS011;593;53.184;8.216;2023-12-14T01:33:48;4.57;;;3.00;;
1206;SDS011;593;53.184;8.216;2023-12-14T01:36:19;3.83;;;3.40;;
1206;SDS011;593;53.184;8.216;2023-12-14T01:38:48;5.63;;;3.58;;
1206;SDS011;593;53.184;8.216;2023-12-14T01:41:14;4.00;;;3.17;;
1206;SDS011;593;53.184;8.216;2023-12-14T01:43:39;3.30;;;2.27;;
1206;SDS011;593;53.184;8.216;2023-12-14T01:46:04;6.63;;;2.37;;
1206;SDS011;593;53.184;8.216;2023-12-14T01:48:30;2.93;;;2.73;;
1206;SDS011;593;53.184;8.216;2023-12-14T01:50:55;5.73;;;3.07;;
1206;SDS011;593;53.184;8.216;2023-12-14T01:53:21;2.77;;;2.47;;
1206;SDS011;593;53.184;8.216;2023-12-14T01:55:47;5.33;;;2.80;;
1206;SDS011;593;53.184;8.216;2023-12-14T01:58:12;3.37;;;2.10;;
1206;SDS011;593;53.184;8.216;2023-12-14T02:03:45;5.00;;;3.28;;
1206;SDS011;593;53.184;8.216;2023-12-14T02:06:11;3.50;;;2.83;;
1206;SDS011;593;53.184;8.216;2023-12-14T02:08:37;3.87;;;2.50;;
1206;SDS011;593;53.184;8.216;2023-12-14T02:11:02;3.87;;;2.50;;
1206;SDS011;593;53.184;8.216;2023-12-14T02:13:28;3.83;;;3.40;;
1206;SDS011;593;53.184;8.216;2023-12-14T02:15:53;4.47;;;2.50;;
1206;SDS011;593;53.184;8.216;2023-12-14T02:18:19;3.67;;;2.37;;
1206;SDS011;593;53.184;8.216;2023-12-14T02:20:44;6.03;;;3.03;;
1206;SDS011;593;53.184;8.216;2023-12-14T02:23:10;5.00;;;3.23;;
1206;SDS011;593;53.184;8.216;2023-12-14T02:25:35;5.80;;;3.00;;
1206;SDS011;593;53.184;8.216;2023-12-14T02:28:00;5.53;;;3.80;;
1206;SDS011;593;53.184;8.216;2023-12-14T02:30:26;4.97;;;2.30;;
1206;SDS011;593;53.184;8.216;2023-12-14T02:32:51;4.60;;;3.50;;
1206;SDS011;593;53.184;8.216;2023-12-14T02:35:16;5.67;;;2.40;;
1206;SDS011;593;53.184;8.216;2023-12-14T02:37:43;4.30;;;2.88;;
1206;SDS011;593;53.184;8.216;2023-12-14T02:40:09;4.27;;;2.93;;
1206;SDS011;593;53.184;8.216;2023-12-14T02:42:35;4.97;;;2.72;;
1206;SDS011;593;53.184;8.216;2023-12-14T02:45:00;3.87;;;3.40;;
1206;SDS011;593;53.184;8.216;2023-12-14T02:47:27;3.70;;;3.13;;
1206;SDS011;593;53.184;8.216;2023-12-14T02:49:53;6.07;;;3.75;;
1206;SDS011;593;53.184;8.216;2023-12-14T02:52:19;5.47;;;3.33;;
1206;SDS011;593;53.184;8.216;2023-12-14T02:54:44;5.43;;;3.50;;
1206;SDS011;593;53.184;8.216;2023-12-14T02:57:09;4.10;;;3.17;;
1206;SDS011;593;53.184;8.216;2023-12-14T02:59:35;7.70;;;4.13;;
1206;SDS011;593;53.184;8.216;2023-12-14T03:02:00;4.23;;;3.60;;
1206;SDS011;593;53.184;8.216;2023-12-14T03:04:26;4.07;;;2.57;;
1206;SDS011;593;53.184;8.216;2023-12-14T03:06:52;5.83;;;3.20;;
1206;SDS011;593;53.184;8.216;2023-12-14T03:09:17;5.77;;;3.27;;
1206;SDS011;593;53.184;8.216;2023-12-14T03:11:44;6.97;;;4.20;;
1206;SDS011;593;53.184;8.216;2023-12-14T03:14:09;4.50;;;3.43;;
1206;SDS011;593;53.184;8.216;2023-12-14T03:16:35;5.53;;;3.87;;
1206;SDS011;593;53.184;8.216;2023-12-14T03:19:01;5.90;;;4.10;;
1206;SDS011;593;53.184;8.216;2023-12-14T03:21:26;5.90;;;3.87;;
1206;SDS011;593;53.184;8.216;2023-12-14T03:23:52;8.33;;;3.97;;
1206;SDS011;593;53.184;8.216;2023-12-14T03:26:17;7.23;;;4.17;;
1206;SDS011;593;53.184;8.216;2023-12-14T03:28:43;7.30;;;4.37;;
1206;SDS011;593;53.184;8.216;2023-12-14T03:31:10;7.20;;;4.60;;
1206;SDS011;593;53.184;8.216;2023-12-14T03:33:37;8.25;;;5.13;;
1206;SDS011;593;53.184;8.216;2023-12-14T03:36:03;6.87;;;5.47;;
1206;SDS011;593;53.184;8.216;2023-12-14T03:38:28;5.43;;;3.93;;
1206;SDS011;593;53.184;8.216;2023-12-14T03:40:54;7.10;;;4.87;;
1206;SDS011;593;53.184;8.216;2023-12-14T03:43:19;7.87;;;5.10;;
1206;SDS011;593;53.184;8.216;2023-12-14T03:45:44;7.30;;;4.90;;
1206;SDS011;593;53.184;8.216;2023-12-14T03:48:10;6.67;;;5.17;;
1206;SDS011;593;53.184;8.216;2023-12-14T03:50:36;5.13;;;4.47;;
1206;SDS011;593;53.184;8.216;2023-12-14T03:53:01;6.43;;;4.43;;
1206;SDS011;593;53.184;8.216;2023-12-14T03:55:27;6.27;;;4.30;;
1206;SDS011;593;53.184;8.216;2023-12-14T03:57:52;5.50;;;4.27;;
1206;SDS011;593;53.184;8.216;2023-12-14T04:00:18;6.23;;;5.20;;
1206;SDS011;593;53.184;8.216;2023-12-14T04:02:43;7.30;;;5.07;;
1206;SDS011;593;53.184;8.216;2023-12-14T04:05:09;6.53;;;4.90;;
1206;SDS011;593;53.184;8.216;2023-12-14T04:07:38;11.20;;;4.87;;
1206;SDS011;593;53.184;8.216;2023-12-14T04:10:06;6.22;;;4.50;;
1206;SDS011;593;53.184;8.216;2023-12-14T04:12:32;6.05;;;4.15;;
1206;SDS011;593;53.184;8.216;2023-12-14T04:14:58;7.57;;;5.77;;
1206;SDS011;593;53.184;8.216;2023-12-14T04:17:23;10.37;;;5.23;;
1206;SDS011;593;53.184;8.216;2023-12-14T04:19:49;5.78;;;4.57;;
1206;SDS011;593;53.184;8.216;2023-12-14T04:22:15;8.33;;;5.00;;
1206;SDS011;593;53.184;8.216;2023-12-14T04:24:40;8.43;;;4.80;;
1206;SDS011;593;53.184;8.216;2023-12-14T04:27:05;7.30;;;4.67;;
1206;SDS011;593;53.184;8.216;2023-12-14T04:29:31;4.43;;;3.50;;
1206;SDS011;593;53.184;8.216;2023-12-14T04:31:56;5.90;;;3.90;;
1206;SDS011;593;53.184;8.216;2023-12-14T04:34:21;8.40;;;5.17;;
1206;SDS011;593;53.184;8.216;2023-12-14T04:36:47;6.80;;;4.73;;
1206;SDS011;593;53.184;8.216;2023-12-14T04:39:13;5.40;;;3.80;;
1206;SDS011;593;53.184;8.216;2023-12-14T04:41:39;4.93;;;3.70;;
1206;SDS011;593;53.184;8.216;2023-12-14T04:44:04;10.80;;;5.13;;
1206;SDS011;593;53.184;8.216;2023-12-14T04:46:29;9.43;;;5.00;;
1206;SDS011;593;53.184;8.216;2023-12-14T04:48:55;7.70;;;5.40;;
1206;SDS011;593;53.184;8.216;2023-12-14T04:51:20;12.97;;;5.20;;
1206;SDS011;593;53.184;8.216;2023-12-14T04:53:49;11.30;;;5.90;;
1206;SDS011;593;53.184;8.216;2023-12-14T04:56:14;6.30;;;5.70;;
1206;SDS011;593;53.184;8.216;2023-12-14T04:58:40;9.83;;;4.97;;
1206;SDS011;593;53.184;8.216;2023-12-14T05:01:06;8.18;;;5.20;;
1206;SDS011;593;53.184;8.216;2023-12-14T05:03:32;10.87;;;6.60;;
1206;SDS011;593;53.184;8.216;2023-12-14T05:05:58;8.27;;;6.13;;
1206;SDS011;593;53.184;8.216;2023-12-14T05:08:23;8.40;;;5.67;;
1206;SDS011;593;53.184;8.216;2023-12-14T05:10:49;8.40;;;6.20;;
1206;SDS011;593;53.184;8.216;2023-12-14T05:13:15;10.27;;;6.40;;
1206;SDS011;593;53.184;8.216;2023-12-14T05:15:40;13.70;;;8.00;;
1206;SDS011;593;53.184;8.216;2023-12-14T05:18:06;9.70;;;5.80;;
1206;SDS011;593;53.184;8.216;2023-12-14T05:20:32;9.63;;;6.80;;
1206;SDS011;593;53.184;8.216;2023-12-14T05:22:57;10.63;;;6.00;;
1206;SDS011;593;53.184;8.216;2023-12-14T05:25:23;11.33;;;6.27;;
1206;SDS011;593;53.184;8.216;2023-12-14T05:27:48;9.20;;;5.90;;
1206;SDS011;593;53.184;8.216;2023-12-14T05:30:13;8.20;;;5.60;;
1206;SDS011;593;53.184;8.216;2023-12-14T05:32:39;8.17;;;5.93;;
1206;SDS011;593;53.184;8.216;2023-12-14T05:35:04;9.83;;;5.53;;
1206;SDS011;593;53.184;8.216;2023-12-14T05:37:31;11.20;;;7.05;;
1206;SDS011;593;53.184;8.216;2023-12-14T05:39:56;9.63;;;6.27;;
1206;SDS011;593;53.184;8.216;2023-12-14T05:42:21;8.67;;;5.90;;
1206;SDS011;593;53.184;8.216;2023-12-14T05:44:48;9.60;;;5.85;;
1206;SDS011;593;53.184;8.216;2023-12-14T05:47:13;9.43;;;7.00;;
1206;SDS011;593;53.184;8.216;2023-12-14T05:49:42;10.37;;;6.07;;
1206;SDS011;593;53.184;8.216;2023-12-14T05:52:08;10.13;;;7.03;;
1206;SDS011;593;53.184;8.216;2023-12-14T05:54:35;8.17;;;5.17;;
1206;SDS011;593;53.184;8.216;2023-12-14T05:57:01;13.13;;;7.03;;
1206;SDS011;593;53.184;8.216;2023-12-14T05:59:27;9.80;;;7.00;;
1206;SDS011;593;53.184;8.216;2023-12-14T06:01:59;12.43;;;6.40;;
1206;SDS011;593;53.184;8.216;2023-12-14T06:04:25;10.30;;;6.10;;
1206;SDS011;593;53.184;8.216;2023-12-14T06:06:52;12.07;;;6.85;;
1206;SDS011;593;53.184;8.216;2023-12-14T06:09:18;10.50;;;7.00;;
1206;SDS011;593;53.184;8.216;2023-12-14T06:11:47;14.48;;;6.40;;
1206;SDS011;593;53.184;8.216;2023-12-14T06:14:13;10.15;;;7.20;;
1206;SDS011;593;53.184;8.216;2023-12-14T06:16:38;14.50;;;7.10;;
1206;SDS011;593;53.184;8.216;2023-12-14T06:19:03;10.43;;;6.97;;
1206;SDS011;593;53.184;8.216;2023-12-14T06:21:29;11.23;;;7.90;;
1206;SDS011;593;53.184;8.216;2023-12-14T06:23:55;10.37;;;7.63;;
1206;SDS011;593;53.184;8.216;2023-12-14T06:26:22;14.57;;;7.32;;
1206;SDS011;593;53.184;8.216;2023-12-14T06:28:47;13.90;;;6.70;;
1206;SDS011;593;53.184;8.216;2023-12-14T06:31:13;13.60;;;7.60;;
1206;SDS011;593;53.184;8.216;2023-12-14T06:33:42;10.25;;;6.80;;
1206;SDS011;593;53.184;8.216;2023-12-14T06:36:08;11.17;;;7.83;;
1206;SDS011;593;53.184;8.216;2023-12-14T06:38:34;13.43;;;7.32;;
1206;SDS011;593;53.184;8.216;2023-12-14T06:41:02;11.73;;;7.60;;
1206;SDS011;593;53.184;8.216;2023-12-14T06:43:28;11.50;;;7.15;;
1206;SDS011;593;53.184;8.216;2023-12-14T06:45:53;15.90;;;7.03;;
1206;SDS011;593;53.184;8.216;2023-12-14T06:48:19;13.27;;;8.53;;
1206;SDS011;593;53.184;8.216;2023-12-14T06:50:45;10.70;;;6.15;;
1206;SDS011;593;53.184;8.216;2023-12-14T06:53:10;10.87;;;7.60;;
1206;SDS011;593;53.184;8.216;2023-12-14T06:55:36;14.83;;;7.70;;
1206;SDS011;593;53.184;8.216;2023-12-14T06:58:01;10.30;;;8.13;;
1206;SDS011;593;53.184;8.216;2023-12-14T07:00:27;9.60;;;6.50;;
1206;SDS011;593;53.184;8.216;2023-12-14T07:02:54;9.43;;;6.88;;
1206;SDS011;593;53.184;8.216;2023-12-14T07:05:20;13.97;;;6.77;;
1206;SDS011;593;53.184;8.216;2023-12-14T07:07:45;16.43;;;8.47;;
1206;SDS011;593;53.184;8.216;2023-12-14T07:10:10;11.43;;;7.70;;
1206;SDS011;593;53.184;8.216;2023-12-14T07:12:36;9.97;;;7.03;;
1206;SDS011;593;53.184;8.216;2023-12-14T07:15:01;15.00;;;8.87;;
1206;SDS011;593;53.184;8.216;2023-12-14T07:17:27;15.13;;;7.73;;
1206;SDS011;593;53.184;8.216;2023-12-14T07:19:52;15.10;;;8.00;;
1206;SDS011;593;53.184;8.216;2023-12-14T07:22:18;12.70;;;6.87;;
1206;SDS011;593;53.184;8.216;2023-12-14T07:24:44;9.23;;;7.00;;
1206;SDS011;593;53.184;8.216;2023-12-14T07:27:09;11.13;;;7.03;;
1206;SDS011;593;53.184;8.216;2023-12-14T07:29:35;9.77;;;6.50;;
1206;SDS011;593;53.184;8.216;2023-12-14T07:32:00;11.17;;;8.07;;
1206;SDS011;593;53.184;8.216;2023-12-14T07:34:26;10.40;;;6.30;;
1206;SDS011;593;53.184;8.216;2023-12-14T07:36:53;11.95;;;8.27;;
1206;SDS011;593;53.184;8.216;2023-12-14T07:39:19;9.80;;;6.47;;
1206;SDS011;593;53.184;8.216;2023-12-14T07:41:44;10.00;;;7.27;;
1206;SDS011;593;53.184;8.216;2023-12-14T07:44:09;10.17;;;6.70;;
1206;SDS011;593;53.184;8.216;2023-12-14T07:46:35;9.87;;;6.40;;
1206;SDS011;593;53.184;8.216;2023-12-14T07:49:04;9.93;;;6.80;;
1206;SDS011;593;53.184;8.216;2023-12-14T07:51:30;13.13;;;7.83;;
1206;SDS011;593;53.184;8.216;2023-12-14T07:53:55;10.93;;;7.60;;
1206;SDS011;593;53.184;8.216;2023-12-14T07:56:20;15.37;;;7.50;;
1206;SDS011;593;53.184;8.216;2023-12-14T07:58:50;11.00;;;7.40;;
1206;SDS011;593;53.184;8.216;2023-12-14T08:01:15;13.60;;;7.40;;
1206;SDS011;593;53.184;8.216;2023-12-14T08:03:41;9.33;;;7.07;;
1206;SDS011;593;53.184;8.216;2023-12-14T08:06:06;14.47;;;8.10;;
1206;SDS011;593;53.184;8.216;2023-12-14T08:08:32;11.27;;;7.70;;
1206;SDS011;593;53.184;8.216;2023-12-14T08:10:57;12.53;;;7.90;;
1206;SDS011;593;53.184;8.216;2023-12-14T08:13:22;13.20;;;6.87;;
1206;SDS011;593;53.184;8.216;2023-12-14T08:15:48;12.13;;;7.70;;
1206;SDS011;593;53.184;8.216;2023-12-14T08:18:13;17.60;;;8.50;;
1206;SDS011;593;53.184;8.216;2023-12-14T08:20:39;14.70;;;8.30;;
1206;SDS011;593;53.184;8.216;2023-12-14T08:23:04;12.30;;;8.10;;
1206;SDS011;593;53.184;8.216;2023-12-14T08:25:30;15.83;;;8.23;;
1206;SDS011;593;53.184;8.216;2023-12-14T08:27:58;12.90;;;7.13;;
1206;SDS011;593;53.184;8.216;2023-12-14T08:30:24;12.80;;;8.60;;
1206;SDS011;593;53.184;8.216;2023-12-14T08:32:49;13.10;;;8.30;;
1206;SDS011;593;53.184;8.216;2023-12-14T08:35:14;8.97;;;7.17;;
1206;SDS011;593;53.184;8.216;2023-12-14T08:37:40;12.33;;;8.40;;
1206;SDS011;593;53.184;8.216;2023-12-14T08:40:06;13.63;;;7.97;;
1206;SDS011;593;53.184;8.216;2023-12-14T08:42:32;10.57;;;7.75;;
1206;SDS011;593;53.184;8.216;2023-12-14T08:44:58;11.23;;;7.80;;
1206;SDS011;593;53.184;8.216;2023-12-14T08:47:23;11.73;;;7.37;;
1206;SDS011;593;53.184;8.216;2023-12-14T08:49:49;12.30;;;7.67;;
1206;SDS011;593;53.184;8.216;2023-12-14T08:52:15;13.37;;;7.40;;
1206;SDS011;593;53.184;8.216;2023-12-14T08:54:40;9.90;;;7.20;;
1206;SDS011;593;53.184;8.216;2023-12-14T08:57:08;10.20;;;7.25;;
1206;SDS011;593;53.184;8.216;2023-12-14T08:59:34;14.90;;;7.70;;
1206;SDS011;593;53.184;8.216;2023-12-14T09:01:59;11.90;;;7.60;;
1206;SDS011;593;53.184;8.216;2023-12-14T09:04:24;11.83;;;7.50;;
1206;SDS011;593;53.184;8.216;2023-12-14T09:06:50;10.40;;;7.70;;
1206;SDS011;593;53.184;8.216;2023-12-14T09:09:16;12.98;;;6.70;;
1206;SDS011;593;53.184;8.216;2023-12-14T09:11:43;10.50;;;7.93;;
1206;SDS011;593;53.184;8.216;2023-12-14T09:14:09;11.40;;;7.57;;
1206;SDS011;593;53.184;8.216;2023-12-14T09:16:41;9.00;;;6.50;;
1206;SDS011;593;53.184;8.216;2023-12-14T09:19:07;12.63;;;7.57;;
1206;SDS011;593;53.184;8.216;2023-12-14T09:21:33;12.43;;;7.50;;
1206;SDS011;593;53.184;8.216;2023-12-14T09:23:58;10.17;;;5.83;;
1206;SDS011;593;53.184;8.216;2023-12-14T09:26:23;12.70;;;7.00;;
1206;SDS011;593;53.184;8.216;2023-12-14T09:28:49;12.10;;;8.00;;
1206;SDS011;593;53.184;8.216;2023-12-14T09:31:14;13.20;;;8.03;;
1206;SDS011;593;53.184;8.216;2023-12-14T09:33:41;8.80;;;6.88;;
1206;SDS011;593;53.184;8.216;2023-12-14T09:36:06;9.00;;;6.90;;
1206;SDS011;593;53.184;8.216;2023-12-14T09:38:32;11.67;;;6.13;;
1206;SDS011;593;53.184;8.216;2023-12-14T09:40:57;12.03;;;8.30;;
1206;SDS011;593;53.184;8.216;2023-12-14T09:43:23;10.47;;;7.27;;
1206;SDS011;593;53.184;8.216;2023-12-14T09:45:48;10.50;;;6.70;;
1206;SDS011;593;53.184;8.216;2023-12-14T09:48:15;9.85;;;6.90;;
1206;SDS011;593;53.184;8.216;2023-12-14T09:50:41;14.13;;;7.05;;
1206;SDS011;593;53.184;8.216;2023-12-14T09:53:07;8.55;;;6.82;;
1206;SDS011;593;53.184;8.216;2023-12-14T09:55:33;10.27;;;7.03;;
1206;SDS011;593;53.184;8.216;2023-12-14T09:57:58;9.10;;;6.30;;
1206;SDS011;593;53.184;8.216;2023-12-14T10:00:34;12.53;;;6.83;;
1206;SDS011;593;53.184;8.216;2023-12-14T10:03:17;6.75;;;5.82;;
1206;SDS011;593;53.184;8.216;2023-12-14T10:05:43;8.73;;;6.03;;
1206;SDS011;593;53.184;8.216;2023-12-14T10:08:09;10.47;;;6.17;;
1206;SDS011;593;53.184;8.216;2023-12-14T10:10:34;9.00;;;6.57;;
1206;SDS011;593;53.184;8.216;2023-12-14T10:13:00;9.97;;;6.90;;
1206;SDS011;593;53.184;8.216;2023-12-14T10:15:26;10.73;;;7.67;;
1206;SDS011;593;53.184;8.216;2023-12-14T10:17:52;10.20;;;6.28;;
1206;SDS011;593;53.184;8.216;2023-12-14T10:20:22;10.45;;;6.68;;
1206;SDS011;593;53.184;8.216;2023-12-14T10:22:48;9.52;;;6.38;;
1206;SDS011;593;53.184;8.216;2023-12-14T10:25:14;9.10;;;6.25;;
1206;SDS011;593;53.184;8.216;2023-12-14T10:27:40;9.77;;;6.53;;
1206;SDS011;593;53.184;8.216;2023-12-14T10:30:09;8.60;;;6.20;;
1206;SDS011;593;53.184;8.216;2023-12-14T10:32:37;11.10;;;7.35;;
1206;SDS011;593;53.184;8.216;2023-12-14T10:35:04;10.48;;;6.55;;
1206;SDS011;593;53.184;8.216;2023-12-14T10:37:30;7.67;;;6.20;;
1206;SDS011;593;53.184;8.216;2023-12-14T10:39:59;8.50;;;6.35;;
1206;SDS011;593;53.184;8.216;2023-12-14T10:42:27;7.70;;;6.20;;
1206;SDS011;593;53.184;8.216;2023-12-14T10:44:54;9.98;;;6.20;;
1206;SDS011;593;53.184;8.216;2023-12-14T10:47:20;9.48;;;5.97;;
1206;SDS011;593;53.184;8.216;2023-12-14T10:49:46;10.80;;;5.97;;
1206;SDS011;593;53.184;8.216;2023-12-14T10:52:15;8.07;;;5.78;;
1206;SDS011;593;53.184;8.216;2023-12-14T10:54:42;12.32;;;6.57;;
1206;SDS011;593;53.184;8.216;2023-12-14T10:57:10;9.88;;;5.75;;
1206;SDS011;593;53.184;8.216;2023-12-14T10:59:37;14.55;;;6.28;;
1206;SDS011;593;53.184;8.216;2023-12-14T11:02:08;9.00;;;5.43;;
1206;SDS011;593;53.184;8.216;2023-12-14T11:10:10;9.40;;;6.40;;
1206;SDS011;593;53.184;8.216;2023-12-14T11:12:54;9.35;;;5.82;;
1206;SDS011;593;53.184;8.216;2023-12-14T11:15:25;7.70;;;5.20;;
1206;SDS011;593;53.184;8.216;2023-12-14T11:20:50;8.45;;;5.28;;
1206;SDS011;593;53.184;8.216;2023-12-14T11:25:53;11.45;;;5.85;;
1206;SDS011;593;53.184;8.216;2023-12-14T11:28:20;13.63;;;6.47;;
1206;SDS011;593;53.184;8.216;2023-12-14T11:30:46;11.77;;;6.70;;
1206;SDS011;593;53.184;8.216;2023-12-14T11:33:12;15.02;;;6.45;;
1206;SDS011;593;53.184;8.216;2023-12-14T11:35:38;14.65;;;6.55;;
1206;SDS011;593;53.184;8.216;2023-12-14T11:38:04;12.40;;;6.90;;
1206;SDS011;593;53.184;8.216;2023-12-14T11:40:35;9.85;;;5.35;;
1206;SDS011;593;53.184;8.216;2023-12-14T11:43:01;9.35;;;5.82;;
1206;SDS011;593;53.184;8.216;2023-12-14T11:45:32;10.98;;;6.03;;
1206;SDS011;593;53.184;8.216;2023-12-14T11:47:58;11.73;;;6.43;;
1206;SDS011;593;53.184;8.216;2023-12-14T11:50:24;9.07;;;6.00;;
1206;SDS011;593;53.184;8.216;2023-12-14T11:52:49;7.33;;;5.47;;
1206;SDS011;593;53.184;8.216;2023-12-14T11:55:15;11.30;;;5.90;;
1206;SDS011;593;53.184;8.216;2023-12-14T11:57:46;9.07;;;5.40;;
1206;SDS011;593;53.184;8.216;2023-12-14T12:00:13;10.43;;;6.28;;
1206;SDS011;593;53.184;8.216;2023-12-14T12:02:39;7.10;;;5.72;;
1206;SDS011;593;53.184;8.216;2023-12-14T12:05:06;9.18;;;6.63;;
1206;SDS011;593;53.184;8.216;2023-12-14T12:07:31;7.07;;;5.47;;
1206;SDS011;593;53.184;8.216;2023-12-14T12:09:58;8.80;;;5.90;;
1206;SDS011;593;53.184;8.216;2023-12-14T12:12:24;10.27;;;5.63;;
1206;SDS011;593;53.184;8.216;2023-12-14T12:14:49;11.77;;;6.13;;
1206;SDS011;593;53.184;8.216;2023-12-14T12:17:17;7.97;;;5.30;;
1206;SDS011;593;53.184;8.216;2023-12-14T12:19:45;10.07;;;7.00;;
1206;SDS011;593;53.184;8.216;2023-12-14T12:22:10;8.90;;;6.70;;
1206;SDS011;593;53.184;8.216;2023-12-14T12:24:35;6.87;;;5.67;;
1206;SDS011;593;53.184;8.216;2023-12-14T12:27:01;6.80;;;5.70;;
1206;SDS011;593;53.184;8.216;2023-12-14T12:29:26;7.53;;;4.83;;
1206;SDS011;593;53.184;8.216;2023-12-14T12:31:52;11.80;;;6.40;;
1206;SDS011;593;53.184;8.216;2023-12-14T12:34:17;10.70;;;6.60;;
1206;SDS011;593;53.184;8.216;2023-12-14T12:36:43;10.10;;;5.80;;
1206;SDS011;593;53.184;8.216;2023-12-14T12:39:09;6.53;;;5.50;;
1206;SDS011;593;53.184;8.216;2023-12-14T12:41:34;7.47;;;5.23;;
1206;SDS011;593;53.184;8.216;2023-12-14T12:44:02;6.78;;;5.25;;
1206;SDS011;593;53.184;8.216;2023-12-14T12:46:34;8.05;;;6.05;;
1206;SDS011;593;53.184;8.216;2023-12-14T12:49:00;8.38;;;5.40;;
1206;SDS011;593;53.184;8.216;2023-12-14T12:51:27;7.50;;;4.78;;
1206;SDS011;593;53.184;8.216;2023-12-14T12:53:54;10.37;;;6.50;;
1206;SDS011;593;53.184;8.216;2023-12-14T12:56:20;10.15;;;6.22;;
1206;SDS011;593;53.184;8.216;2023-12-14T12:58:45;11.13;;;5.77;;
1206;SDS011;593;53.184;8.216;2023-12-14T13:01:11;9.27;;;6.55;;
1206;SDS011;593;53.184;8.216;2023-12-14T13:03:37;9.20;;;5.77;;
1206;SDS011;593;53.184;8.216;2023-12-14T13:06:02;9.13;;;4.80;;
1206;SDS011;593;53.184;8.216;2023-12-14T13:08:28;12.47;;;6.00;;
1206;SDS011;593;53.184;8.216;2023-12-14T13:10:53;11.03;;;5.60;;
1206;SDS011;593;53.184;8.216;2023-12-14T13:13:19;9.60;;;5.23;;
1206;SDS011;593;53.184;8.216;2023-12-14T13:15:44;5.97;;;5.00;;
1206;SDS011;593;53.184;8.216;2023-12-14T13:18:10;9.73;;;5.90;;
1206;SDS011;593;53.184;8.216;2023-12-14T13:20:35;8.40;;;4.77;;
1206;SDS011;593;53.184;8.216;2023-12-14T13:23:01;8.77;;;6.20;;
1206;SDS011;593;53.184;8.216;2023-12-14T13:25:27;9.68;;;6.65;;
1206;SDS011;593;53.184;8.216;2023-12-14T13:27:52;9.03;;;6.10;;
1206;SDS011;593;53.184;8.216;2023-12-14T13:30:18;7.43;;;5.00;;
1206;SDS011;593;53.184;8.216;2023-12-14T13:32:44;9.73;;;6.10;;
1206;SDS011;593;53.184;8.216;2023-12-14T13:35:13;7.77;;;4.90;;
1206;SDS011;593;53.184;8.216;2023-12-14T13:37:38;6.60;;;4.93;;
1206;SDS011;593;53.184;8.216;2023-12-14T13:40:04;7.73;;;5.40;;
1206;SDS011;593;53.184;8.216;2023-12-14T13:42:30;6.70;;;5.40;;
1206;SDS011;593;53.184;8.216;2023-12-14T13:44:55;8.43;;;6.00;;
1206;SDS011;593;53.184;8.216;2023-12-14T13:47:20;7.57;;;5.70;;
1206;SDS011;593;53.184;8.216;2023-12-14T13:49:46;9.23;;;5.57;;
1206;SDS011;593;53.184;8.216;2023-12-14T13:52:11;8.87;;;5.77;;
1206;SDS011;593;53.184;8.216;2023-12-14T13:54:37;9.63;;;6.67;;
1206;SDS011;593;53.184;8.216;2023-12-14T13:57:02;10.20;;;6.77;;
1206;SDS011;593;53.184;8.216;2023-12-14T13:59:28;9.20;;;5.40;;
1206;SDS011;593;53.184;8.216;2023-12-14T14:01:53;10.40;;;6.77;;
1206;SDS011;593;53.184;8.216;2023-12-14T14:04:19;7.77;;;5.83;;
1206;SDS011;593;53.184;8.216;2023-12-14T14:06:44;8.27;;;5.83;;
1206;SDS011;593;53.184;8.216;2023-12-14T14:09:10;8.53;;;5.90;;
1206;SDS011;593;53.184;8.216;2023-12-14T14:11:36;9.95;;;6.50;;
1206;SDS011;593;53.184;8.216;2023-12-14T14:14:04;8.00;;;5.30;;
1206;SDS011;593;53.184;8.216;2023-12-14T14:16:30;13.90;;;5.95;;
1206;SDS011;593;53.184;8.216;2023-12-14T14:18:56;9.70;;;5.85;;
1206;SDS011;593;53.184;8.216;2023-12-14T14:21:21;10.10;;;5.70;;
1206;SDS011;593;53.184;8.216;2023-12-14T14:23:47;8.40;;;4.90;;
1206;SDS011;593;53.184;8.216;2023-12-14T14:26:12;9.27;;;5.60;;
1206;SDS011;593;53.184;8.216;2023-12-14T14:28:37;10.57;;;6.23;;
1206;SDS011;593;53.184;8.216;2023-12-14T14:31:03;8.03;;;6.03;;
1206;SDS011;593;53.184;8.216;2023-12-14T14:33:29;9.37;;;5.50;;
1206;SDS011;593;53.184;8.216;2023-12-14T14:35:54;8.27;;;6.20;;
1206;SDS011;593;53.184;8.216;2023-12-14T14:38:19;9.10;;;5.83;;
1206;SDS011;593;53.184;8.216;2023-12-14T14:40:48;7.90;;;6.43;;
1206;SDS011;593;53.184;8.216;2023-12-14T14:43:13;9.32;;;6.10;;
1206;SDS011;593;53.184;8.216;2023-12-14T14:45:39;7.00;;;5.37;;
1206;SDS011;593;53.184;8.216;2023-12-14T14:48:05;7.50;;;5.70;;
1206;SDS011;593;53.184;8.216;2023-12-14T14:50:31;9.27;;;7.27;;
1206;SDS011;593;53.184;8.216;2023-12-14T14:52:58;11.57;;;7.03;;
1206;SDS011;593;53.184;8.216;2023-12-14T14:55:23;13.60;;;7.10;;
1206;SDS011;593;53.184;8.216;2023-12-14T14:57:50;7.72;;;6.85;;
1206;SDS011;593;53.184;8.216;2023-12-14T15:00:17;9.10;;;6.60;;
1206;SDS011;593;53.184;8.216;2023-12-14T15:02:42;8.67;;;6.27;;
1206;SDS011;593;53.184;8.216;2023-12-14T15:05:08;9.20;;;6.07;;
1206;SDS011;593;53.184;8.216;2023-12-14T15:07:33;8.90;;;5.70;;
1206;SDS011;593;53.184;8.216;2023-12-14T15:09:59;8.27;;;6.93;;
1206;SDS011;593;53.184;8.216;2023-12-14T15:12:24;9.83;;;6.77;;
1206;SDS011;593;53.184;8.216;2023-12-14T15:14:49;11.13;;;7.40;;
1206;SDS011;593;53.184;8.216;2023-12-14T15:17:15;8.80;;;6.00;;
1206;SDS011;593;53.184;8.216;2023-12-14T15:19:40;14.43;;;5.90;;
1206;SDS011;593;53.184;8.216;2023-12-14T15:22:06;9.13;;;5.70;;
1206;SDS011;593;53.184;8.216;2023-12-14T15:24:31;12.80;;;6.70;;
1206;SDS011;593;53.184;8.216;2023-12-14T15:26:57;9.20;;;5.97;;
1206;SDS011;593;53.184;8.216;2023-12-14T15:29:23;10.45;;;6.57;;
1206;SDS011;593;53.184;8.216;2023-12-14T15:31:48;9.57;;;6.40;;